sensor_id;sensor_type;location;lat;lon;timestamp;temperature;humidity
10868;DHT22;62667;48.698;8.762;2023-01-01T00:00:37;11.40;82.20
10868;DHT22;62667;48.698;8.762;2023-01-01T00:03:06;11.50;82.20
10868;DHT22;62667;48.698;8.762;2023-01-01T00:10:31;11.60;80.50
10868;DHT22;62667;48.698;8.762;2023-01-01T00:17:53;11.60;79.60
10868;DHT22;62667;48.698;8.762;2023-01-01T00:20:22;11.60;79.30
10868;DHT22;62667;48.698;8.762;2023-01-01T00:22:49;11.80;77.70
10868;DHT22;62667;48.698;8.762;2023-01-01T00:25:16;11.70;83.30
10868;DHT22;62667;48.698;8.762;2023-01-01T00:27:43;12.00;76.30
10868;DHT22;62667;48.698;8.762;2023-01-01T00:30:11;12.20;72.80
10868;DHT22;62667;48.698;8.762;2023-01-01T00:35:07;12.40;70.20
10868;DHT22;62667;48.698;8.762;2023-01-01T00:42:32;12.90;65.60
10868;DHT22;62667;48.698;8.762;2023-01-01T00:47:26;13.00;64.00
10868;DHT22;62667;48.698;8.762;2023-01-01T00:49:53;13.10;63.50
10868;DHT22;62667;48.698;8.762;2023-01-01T00:52:20;13.00;63.00
10868;DHT22;62667;48.698;8.762;2023-01-01T00:54:49;13.20;62.50
10868;DHT22;62667;48.698;8.762;2023-01-01T00:57:16;13.20;62.10
10868;DHT22;62667;48.698;8.762;2023-01-01T00:59:43;13.20;62.10
10868;DHT22;62667;48.698;8.762;2023-01-01T01:02:10;13.10;61.80
10868;DHT22;62667;48.698;8.762;2023-01-01T01:04:37;13.20;61.70
10868;DHT22;62667;48.698;8.762;2023-01-01T01:07:04;13.10;62.60
10868;DHT22;62667;48.698;8.762;2023-01-01T01:09:31;13.10;61.40
10868;DHT22;62667;48.698;8.762;2023-01-01T01:12:00;13.00;61.70
10868;DHT22;62667;48.698;8.762;2023-01-01T01:14:27;13.00;62.60
10868;DHT22;62667;48.698;8.762;2023-01-01T01:16:54;13.00;62.40
10868;DHT22;62667;48.698;8.762;2023-01-01T01:19:21;12.90;62.90
10868;DHT22;62667;48.698;8.762;2023-01-01T01:21:50;12.80;63.40
10868;DHT22;62667;48.698;8.762;2023-01-01T01:24:17;12.60;63.50
10868;DHT22;62667;48.698;8.762;2023-01-01T01:26:44;12.60;64.20
10868;DHT22;62667;48.698;8.762;2023-01-01T01:29:13;12.50;64.70
10868;DHT22;62667;48.698;8.762;2023-01-01T01:34:07;12.60;63.70
10868;DHT22;62667;48.698;8.762;2023-01-01T01:36:34;12.70;65.20
10868;DHT22;62667;48.698;8.762;2023-01-01T01:43:58;12.50;66.90
10868;DHT22;62667;48.698;8.762;2023-01-01T01:46:34;12.30;64.30
10868;DHT22;62667;48.698;8.762;2023-01-01T01:49:09;12.30;64.90
10868;DHT22;62667;48.698;8.762;2023-01-01T01:51:41;12.20;65.00
10868;DHT22;62667;48.698;8.762;2023-01-01T01:54:11;12.20;66.00
10868;DHT22;62667;48.698;8.762;2023-01-01T01:56:48;12.10;66.00
10868;DHT22;62667;48.698;8.762;2023-01-01T01:59:19;12.10;66.40
10868;DHT22;62667;48.698;8.762;2023-01-01T02:01:52;12.00;66.30
10868;DHT22;62667;48.698;8.762;2023-01-01T02:04:19;11.80;66.90
10868;DHT22;62667;48.698;8.762;2023-01-01T02:06:47;11.80;67.30
10868;DHT22;62667;48.698;8.762;2023-01-01T02:09:16;11.70;69.90
10868;DHT22;62667;48.698;8.762;2023-01-01T02:11:43;11.60;72.20
10868;DHT22;62667;48.698;8.762;2023-01-01T02:14:10;11.30;70.90
10868;DHT22;62667;48.698;8.762;2023-01-01T02:16:41;11.30;71.80
10868;DHT22;62667;48.698;8.762;2023-01-01T02:22:00;11.30;71.60
10868;DHT22;62667;48.698;8.762;2023-01-01T02:27:20;11.40;72.10
10868;DHT22;62667;48.698;8.762;2023-01-01T02:29:58;11.40;71.60
10868;DHT22;62667;48.698;8.762;2023-01-01T02:32:31;11.40;72.10
10868;DHT22;62667;48.698;8.762;2023-01-01T02:35:04;11.40;72.00
10868;DHT22;62667;48.698;8.762;2023-01-01T02:40:22;11.20;90.90
10868;DHT22;62667;48.698;8.762;2023-01-01T02:42:54;11.40;71.90
10868;DHT22;62667;48.698;8.762;2023-01-01T02:45:24;11.40;71.60
10868;DHT22;62667;48.698;8.762;2023-01-01T02:47:51;11.60;69.70
10868;DHT22;62667;48.698;8.762;2023-01-01T03:01:08;12.30;63.40
10868;DHT22;62667;48.698;8.762;2023-01-01T03:03:49;12.30;63.00
10868;DHT22;62667;48.698;8.762;2023-01-01T03:06:27;12.40;62.10
10868;DHT22;62667;48.698;8.762;2023-01-01T03:09:11;12.50;61.00
10868;DHT22;62667;48.698;8.762;2023-01-01T03:11:53;12.60;60.60
10868;DHT22;62667;48.698;8.762;2023-01-01T03:14:39;12.60;60.20
10868;DHT22;62667;48.698;8.762;2023-01-01T03:17:17;12.60;59.70
10868;DHT22;62667;48.698;8.762;2023-01-01T03:22:24;12.50;60.20
10868;DHT22;62667;48.698;8.762;2023-01-01T03:24:59;12.40;60.10
10868;DHT22;62667;48.698;8.762;2023-01-01T03:27:31;12.30;61.00
10868;DHT22;62667;48.698;8.762;2023-01-01T03:32:38;12.40;60.40
10868;DHT22;62667;48.698;8.762;2023-01-01T03:35:33;12.30;60.20
10868;DHT22;62667;48.698;8.762;2023-01-01T03:38:07;12.30;60.50
10868;DHT22;62667;48.698;8.762;2023-01-01T03:40:37;12.20;60.60
10868;DHT22;62667;48.698;8.762;2023-01-01T03:43:12;12.20;60.30
10868;DHT22;62667;48.698;8.762;2023-01-01T03:45:44;12.30;60.30
10868;DHT22;62667;48.698;8.762;2023-01-01T03:48:15;12.30;60.30
10868;DHT22;62667;48.698;8.762;2023-01-01T03:50:51;12.30;60.10
10868;DHT22;62667;48.698;8.762;2023-01-01T03:53:32;12.40;60.40
10868;DHT22;62667;48.698;8.762;2023-01-01T03:56:12;12.40;59.60
10868;DHT22;62667;48.698;8.762;2023-01-01T03:58:48;12.30;59.60
10868;DHT22;62667;48.698;8.762;2023-01-01T04:01:23;12.40;60.10
10868;DHT22;62667;48.698;8.762;2023-01-01T04:03:55;12.40;95.20
10868;DHT22;62667;48.698;8.762;2023-01-01T04:06:23;12.60;58.60
10868;DHT22;62667;48.698;8.762;2023-01-01T04:08:55;12.50;58.60
10868;DHT22;62667;48.698;8.762;2023-01-01T04:11:27;12.40;59.10
10868;DHT22;62667;48.698;8.762;2023-01-01T04:16:51;12.50;59.10
10868;DHT22;62667;48.698;8.762;2023-01-01T04:21:47;12.30;59.10
10868;DHT22;62667;48.698;8.762;2023-01-01T04:24:14;12.20;59.90
10868;DHT22;62667;48.698;8.762;2023-01-01T04:26:41;12.20;60.10
10868;DHT22;62667;48.698;8.762;2023-01-01T04:29:08;12.30;60.30
10868;DHT22;62667;48.698;8.762;2023-01-01T04:31:36;12.40;60.10
10868;DHT22;62667;48.698;8.762;2023-01-01T04:34:04;12.30;59.70
10868;DHT22;62667;48.698;8.762;2023-01-01T04:36:32;12.40;59.60
10868;DHT22;62667;48.698;8.762;2023-01-01T04:39:00;12.40;60.20
10868;DHT22;62667;48.698;8.762;2023-01-01T04:41:27;12.30;60.10
10868;DHT22;62667;48.698;8.762;2023-01-01T04:43:54;12.10;60.70
10868;DHT22;62667;48.698;8.762;2023-01-01T04:46:22;12.10;61.10
10868;DHT22;62667;48.698;8.762;2023-01-01T04:48:50;12.00;61.60
10868;DHT22;62667;48.698;8.762;2023-01-01T04:51:18;12.00;61.60
10868;DHT22;62667;48.698;8.762;2023-01-01T04:53:48;11.90;62.20
10868;DHT22;62667;48.698;8.762;2023-01-01T04:56:17;12.00;62.10
10868;DHT22;62667;48.698;8.762;2023-01-01T04:58:46;11.80;62.30
10868;DHT22;62667;48.698;8.762;2023-01-01T05:03:44;11.90;62.60
10868;DHT22;62667;48.698;8.762;2023-01-01T05:06:12;11.90;63.30
10868;DHT22;62667;48.698;8.762;2023-01-01T05:08:42;11.90;62.60
10868;DHT22;62667;48.698;8.762;2023-01-01T05:11:12;11.80;62.20
10868;DHT22;62667;48.698;8.762;2023-01-01T05:13:42;11.90;62.10
10868;DHT22;62667;48.698;8.762;2023-01-01T05:16:11;12.00;62.40
10868;DHT22;62667;48.698;8.762;2023-01-01T05:18:40;12.00;61.90
10868;DHT22;62667;48.698;8.762;2023-01-01T05:21:10;12.00;62.50
10868;DHT22;62667;48.698;8.762;2023-01-01T05:23:38;12.20;61.20
10868;DHT22;62667;48.698;8.762;2023-01-01T05:26:11;12.30;60.80
10868;DHT22;62667;48.698;8.762;2023-01-01T05:28:39;12.30;60.30
10868;DHT22;62667;48.698;8.762;2023-01-01T05:31:07;12.30;60.50
10868;DHT22;62667;48.698;8.762;2023-01-01T05:36:05;12.30;60.00
10868;DHT22;62667;48.698;8.762;2023-01-01T05:38:34;12.30;60.00
10868;DHT22;62667;48.698;8.762;2023-01-01T05:41:04;12.20;59.90
10868;DHT22;62667;48.698;8.762;2023-01-01T05:43:34;12.00;60.00
10868;DHT22;62667;48.698;8.762;2023-01-01T05:46:02;11.90;61.00
10868;DHT22;62667;48.698;8.762;2023-01-01T05:48:31;11.70;61.60
10868;DHT22;62667;48.698;8.762;2023-01-01T05:51:03;11.60;62.30
10868;DHT22;62667;48.698;8.762;2023-01-01T05:53:31;11.50;63.00
10868;DHT22;62667;48.698;8.762;2023-01-01T05:55:58;11.50;63.00
10868;DHT22;62667;48.698;8.762;2023-01-01T05:58:26;11.50;63.60
10868;DHT22;62667;48.698;8.762;2023-01-01T06:00:56;11.60;63.00
10868;DHT22;62667;48.698;8.762;2023-01-01T06:13:26;11.50;63.70
10868;DHT22;62667;48.698;8.762;2023-01-01T06:15:56;11.30;65.10
10868;DHT22;62667;48.698;8.762;2023-01-01T06:18:28;11.30;65.20
10868;DHT22;62667;48.698;8.762;2023-01-01T06:21:02;11.30;66.60
10868;DHT22;62667;48.698;8.762;2023-01-01T06:23:31;11.30;64.90
10868;DHT22;62667;48.698;8.762;2023-01-01T06:26:06;11.30;65.00
10868;DHT22;62667;48.698;8.762;2023-01-01T06:28:34;11.10;64.90
10868;DHT22;62667;48.698;8.762;2023-01-01T06:31:05;11.20;65.70
10868;DHT22;62667;48.698;8.762;2023-01-01T06:33:33;11.10;66.10
10868;DHT22;62667;48.698;8.762;2023-01-01T06:36:01;11.10;66.30
10868;DHT22;62667;48.698;8.762;2023-01-01T06:38:30;11.20;64.90
10868;DHT22;62667;48.698;8.762;2023-01-01T06:40:58;11.20;64.60
10868;DHT22;62667;48.698;8.762;2023-01-01T06:43:28;11.10;65.40
10868;DHT22;62667;48.698;8.762;2023-01-01T06:45:59;11.10;66.00
10868;DHT22;62667;48.698;8.762;2023-01-01T06:48:30;11.20;65.40
10868;DHT22;62667;48.698;8.762;2023-01-01T06:51:04;11.10;65.20
10868;DHT22;62667;48.698;8.762;2023-01-01T06:53:32;11.10;66.00
10868;DHT22;62667;48.698;8.762;2023-01-01T06:56:00;10.90;65.60
10868;DHT22;62667;48.698;8.762;2023-01-01T06:58:27;11.10;65.60
10868;DHT22;62667;48.698;8.762;2023-01-01T07:01:02;11.00;65.00
10868;DHT22;62667;48.698;8.762;2023-01-01T07:03:31;11.00;65.80
10868;DHT22;62667;48.698;8.762;2023-01-01T07:05:59;11.00;65.80
10868;DHT22;62667;48.698;8.762;2023-01-01T07:08:26;11.00;64.70
10868;DHT22;62667;48.698;8.762;2023-01-01T07:10:53;10.90;65.40
10868;DHT22;62667;48.698;8.762;2023-01-01T07:13:22;11.00;66.00
10868;DHT22;62667;48.698;8.762;2023-01-01T07:15:49;10.90;65.90
10868;DHT22;62667;48.698;8.762;2023-01-01T07:18:18;10.90;65.50
10868;DHT22;62667;48.698;8.762;2023-01-01T07:20:50;11.00;64.80
10868;DHT22;62667;48.698;8.762;2023-01-01T07:23:19;11.00;65.50
10868;DHT22;62667;48.698;8.762;2023-01-01T07:25:48;11.10;63.90
10868;DHT22;62667;48.698;8.762;2023-01-01T07:28:16;11.10;64.60
10868;DHT22;62667;48.698;8.762;2023-01-01T07:33:11;11.10;64.20
10868;DHT22;62667;48.698;8.762;2023-01-01T07:35:39;11.10;64.90
10868;DHT22;62667;48.698;8.762;2023-01-01T07:38:08;11.00;64.90
10868;DHT22;62667;48.698;8.762;2023-01-01T07:40:35;10.90;65.60
10868;DHT22;62667;48.698;8.762;2023-01-01T07:43:02;10.90;65.70
10868;DHT22;62667;48.698;8.762;2023-01-01T07:45:29;10.90;66.00
10868;DHT22;62667;48.698;8.762;2023-01-01T07:47:57;11.00;65.30
10868;DHT22;62667;48.698;8.762;2023-01-01T07:50:28;11.00;64.60
10868;DHT22;62667;48.698;8.762;2023-01-01T07:52:57;11.10;64.40
10868;DHT22;62667;48.698;8.762;2023-01-01T07:55:26;11.10;65.10
10868;DHT22;62667;48.698;8.762;2023-01-01T07:57:53;11.10;65.20
10868;DHT22;62667;48.698;8.762;2023-01-01T08:00:21;11.00;64.90
10868;DHT22;62667;48.698;8.762;2023-01-01T08:02:48;11.00;65.30
10868;DHT22;62667;48.698;8.762;2023-01-01T08:05:15;11.00;64.70
10868;DHT22;62667;48.698;8.762;2023-01-01T08:07:45;11.00;65.40
10868;DHT22;62667;48.698;8.762;2023-01-01T08:10:13;11.10;65.20
10868;DHT22;62667;48.698;8.762;2023-01-01T08:12:43;11.30;64.90
10868;DHT22;62667;48.698;8.762;2023-01-01T08:15:10;11.50;62.80
10868;DHT22;62667;48.698;8.762;2023-01-01T08:17:38;11.60;63.70
10868;DHT22;62667;48.698;8.762;2023-01-01T08:20:07;11.70;61.70
10868;DHT22;62667;48.698;8.762;2023-01-01T08:22:35;11.70;62.40
10868;DHT22;62667;48.698;8.762;2023-01-01T08:25:03;11.80;60.40
10868;DHT22;62667;48.698;8.762;2023-01-01T08:27:30;11.80;61.30
10868;DHT22;62667;48.698;8.762;2023-01-01T08:29:58;11.80;60.70
10868;DHT22;62667;48.698;8.762;2023-01-01T08:32:25;11.80;60.70
10868;DHT22;62667;48.698;8.762;2023-01-01T08:34:52;11.90;66.30
10868;DHT22;62667;48.698;8.762;2023-01-01T08:37:20;11.90;60.00
10868;DHT22;62667;48.698;8.762;2023-01-01T08:39:49;11.90;60.00
10868;DHT22;62667;48.698;8.762;2023-01-01T08:42:16;12.00;60.10
10868;DHT22;62667;48.698;8.762;2023-01-01T08:44:43;12.10;60.80
10868;DHT22;62667;48.698;8.762;2023-01-01T08:49:49;12.20;59.40
10868;DHT22;62667;48.698;8.762;2023-01-01T08:52:17;12.20;59.40
10868;DHT22;62667;48.698;8.762;2023-01-01T08:54:45;12.30;59.50
10868;DHT22;62667;48.698;8.762;2023-01-01T08:57:12;12.40;59.20
10868;DHT22;62667;48.698;8.762;2023-01-01T08:59:39;12.50;59.00
10868;DHT22;62667;48.698;8.762;2023-01-01T09:02:06;12.50;59.70
10868;DHT22;62667;48.698;8.762;2023-01-01T09:04:35;12.50;68.90
10868;DHT22;62667;48.698;8.762;2023-01-01T09:07:02;12.70;58.60
10868;DHT22;62667;48.698;8.762;2023-01-01T09:09:29;12.70;57.90
10868;DHT22;62667;48.698;8.762;2023-01-01T09:11:57;12.70;58.00
10868;DHT22;62667;48.698;8.762;2023-01-01T09:14:30;12.80;58.30
10868;DHT22;62667;48.698;8.762;2023-01-01T09:16:58;12.70;57.80
10868;DHT22;62667;48.698;8.762;2023-01-01T09:19:25;12.80;57.90
10868;DHT22;62667;48.698;8.762;2023-01-01T09:21:54;12.80;58.60
10868;DHT22;62667;48.698;8.762;2023-01-01T09:24:21;12.80;58.30
10868;DHT22;62667;48.698;8.762;2023-01-01T09:26:49;12.90;57.30
10868;DHT22;62667;48.698;8.762;2023-01-01T09:29:16;12.90;57.10
10868;DHT22;62667;48.698;8.762;2023-01-01T09:31:45;12.90;57.50
10868;DHT22;62667;48.698;8.762;2023-01-01T09:34:13;13.10;56.40
10868;DHT22;62667;48.698;8.762;2023-01-01T09:36:41;13.10;54.90
10868;DHT22;62667;48.698;8.762;2023-01-01T09:39:11;13.20;55.50
10868;DHT22;62667;48.698;8.762;2023-01-01T09:42:01;13.30;54.90
10868;DHT22;62667;48.698;8.762;2023-01-01T09:44:56;13.60;53.80
10868;DHT22;62667;48.698;8.762;2023-01-01T09:47:33;13.50;53.20
10868;DHT22;62667;48.698;8.762;2023-01-01T09:50:06;13.60;53.30
10868;DHT22;62667;48.698;8.762;2023-01-01T09:52:44;13.70;52.10
10868;DHT22;62667;48.698;8.762;2023-01-01T09:55:21;13.80;53.00
10868;DHT22;62667;48.698;8.762;2023-01-01T09:57:52;13.80;52.50
10868;DHT22;62667;48.698;8.762;2023-01-01T10:00:21;14.00;52.60
10868;DHT22;62667;48.698;8.762;2023-01-01T10:03:12;14.10;50.90
10868;DHT22;62667;48.698;8.762;2023-01-01T10:05:53;14.20;50.40
10868;DHT22;62667;48.698;8.762;2023-01-01T10:11:25;14.40;53.10
10868;DHT22;62667;48.698;8.762;2023-01-01T10:16:33;14.60;49.10
10868;DHT22;62667;48.698;8.762;2023-01-01T10:19:17;14.60;50.00
10868;DHT22;62667;48.698;8.762;2023-01-01T10:24:33;14.80;49.90
10868;DHT22;62667;48.698;8.762;2023-01-01T10:27:06;14.80;54.70
10868;DHT22;62667;48.698;8.762;2023-01-01T10:32:21;14.80;47.90
10868;DHT22;62667;48.698;8.762;2023-01-01T10:34:53;15.00;48.60
10868;DHT22;62667;48.698;8.762;2023-01-01T10:37:23;15.20;48.60
10868;DHT22;62667;48.698;8.762;2023-01-01T10:39:51;15.30;48.00
10868;DHT22;62667;48.698;8.762;2023-01-01T10:42:19;15.40;47.40
10868;DHT22;62667;48.698;8.762;2023-01-01T10:44:46;15.50;47.70
10868;DHT22;62667;48.698;8.762;2023-01-01T10:47:25;15.80;45.90
10868;DHT22;62667;48.698;8.762;2023-01-01T10:49:56;15.80;45.90
10868;DHT22;62667;48.698;8.762;2023-01-01T10:52:26;15.90;44.80
10868;DHT22;62667;48.698;8.762;2023-01-01T10:54:57;16.00;44.70
10868;DHT22;62667;48.698;8.762;2023-01-01T10:57:34;16.10;44.80
10868;DHT22;62667;48.698;8.762;2023-01-01T11:00:18;16.40;44.10
10868;DHT22;62667;48.698;8.762;2023-01-01T11:06:02;16.50;40.80
10868;DHT22;62667;48.698;8.762;2023-01-01T11:08:34;16.30;39.30
10868;DHT22;62667;48.698;8.762;2023-01-01T11:11:03;16.50;39.50
10868;DHT22;62667;48.698;8.762;2023-01-01T11:16:00;17.10;41.40
10868;DHT22;62667;48.698;8.762;2023-01-01T11:18:29;17.70;36.30
10868;DHT22;62667;48.698;8.762;2023-01-01T11:23:31;19.70;31.50
10868;DHT22;62667;48.698;8.762;2023-01-01T11:28:58;20.30;29.90
10868;DHT22;62667;48.698;8.762;2023-01-01T11:31:29;20.70;29.50
10868;DHT22;62667;48.698;8.762;2023-01-01T11:39:19;21.50;26.80
10868;DHT22;62667;48.698;8.762;2023-01-01T11:46:56;21.70;26.50
10868;DHT22;62667;48.698;8.762;2023-01-01T11:49:26;21.90;26.10
10868;DHT22;62667;48.698;8.762;2023-01-01T11:51:56;21.70;26.10
10868;DHT22;62667;48.698;8.762;2023-01-01T11:54:29;23.20;24.90
10868;DHT22;62667;48.698;8.762;2023-01-01T11:57:05;21.80;25.50
10868;DHT22;62667;48.698;8.762;2023-01-01T12:02:21;22.30;53.90
10868;DHT22;62667;48.698;8.762;2023-01-01T12:07:37;24.70;22.00
10868;DHT22;62667;48.698;8.762;2023-01-01T12:17:57;27.20;16.60
10868;DHT22;62667;48.698;8.762;2023-01-01T12:20:32;27.00;21.90
10868;DHT22;62667;48.698;8.762;2023-01-01T12:23:02;27.70;18.70
10868;DHT22;62667;48.698;8.762;2023-01-01T12:33:39;30.50;31.90
10868;DHT22;62667;48.698;8.762;2023-01-01T12:52:51;31.50;14.20
10868;DHT22;62667;48.698;8.762;2023-01-01T12:58:33;31.60;14.10
10868;DHT22;62667;48.698;8.762;2023-01-01T13:01:08;30.80;14.90
10868;DHT22;62667;48.698;8.762;2023-01-01T13:03:46;31.40;14.40
10868;DHT22;62667;48.698;8.762;2023-01-01T13:06:18;30.80;15.00
10868;DHT22;62667;48.698;8.762;2023-01-01T13:08:50;30.50;14.90
10868;DHT22;62667;48.698;8.762;2023-01-01T13:11:21;30.30;15.10
10868;DHT22;62667;48.698;8.762;2023-01-01T13:13:51;29.90;15.90
10868;DHT22;62667;48.698;8.762;2023-01-01T13:16:32;29.20;16.10
10868;DHT22;62667;48.698;8.762;2023-01-01T13:19:03;28.90;15.90
10868;DHT22;62667;48.698;8.762;2023-01-01T13:21:31;28.30;17.40
10868;DHT22;62667;48.698;8.762;2023-01-01T13:24:17;28.90;16.60
10868;DHT22;62667;48.698;8.762;2023-01-01T13:26:46;29.40;15.80
10868;DHT22;62667;48.698;8.762;2023-01-01T13:29:44;28.90;16.10
10868;DHT22;62667;48.698;8.762;2023-01-01T13:32:13;28.90;16.10
10868;DHT22;62667;48.698;8.762;2023-01-01T13:35:13;28.60;16.30
10868;DHT22;62667;48.698;8.762;2023-01-01T13:37:43;28.50;17.20
10868;DHT22;62667;48.698;8.762;2023-01-01T13:43:29;28.20;17.30
10868;DHT22;62667;48.698;8.762;2023-01-01T13:45:58;27.70;18.00
10868;DHT22;62667;48.698;8.762;2023-01-01T13:52:00;27.50;17.90
10868;DHT22;62667;48.698;8.762;2023-01-01T13:55:26;27.70;17.10
10868;DHT22;62667;48.698;8.762;2023-01-01T13:58:21;26.60;18.80
10868;DHT22;62667;48.698;8.762;2023-01-01T14:03:57;26.30;19.60
10868;DHT22;62667;48.698;8.762;2023-01-01T14:06:28;26.60;19.40
10868;DHT22;62667;48.698;8.762;2023-01-01T14:09:05;26.50;19.10
10868;DHT22;62667;48.698;8.762;2023-01-01T14:11:37;25.80;19.40
10868;DHT22;62667;48.698;8.762;2023-01-01T14:14:18;25.70;20.30
10868;DHT22;62667;48.698;8.762;2023-01-01T14:16:50;25.70;19.90
10868;DHT22;62667;48.698;8.762;2023-01-01T14:19:18;25.90;19.90
10868;DHT22;62667;48.698;8.762;2023-01-01T14:21:45;25.70;19.80
10868;DHT22;62667;48.698;8.762;2023-01-01T14:24:15;25.70;20.50
10868;DHT22;62667;48.698;8.762;2023-01-01T14:26:45;25.60;19.90
10868;DHT22;62667;48.698;8.762;2023-01-01T14:31:47;24.40;21.30
10868;DHT22;62667;48.698;8.762;2023-01-01T14:34:19;24.20;22.20
10868;DHT22;62667;48.698;8.762;2023-01-01T14:36:50;24.10;22.50
10868;DHT22;62667;48.698;8.762;2023-01-01T14:39:27;24.40;22.00
10868;DHT22;62667;48.698;8.762;2023-01-01T14:41:58;24.50;21.50
10868;DHT22;62667;48.698;8.762;2023-01-01T14:44:33;24.30;22.60
10868;DHT22;62667;48.698;8.762;2023-01-01T14:47:02;24.30;22.10
10868;DHT22;62667;48.698;8.762;2023-01-01T14:49:36;23.80;23.40
10868;DHT22;62667;48.698;8.762;2023-01-01T14:52:07;24.00;23.50
10868;DHT22;62667;48.698;8.762;2023-01-01T14:54:42;24.40;23.30
10868;DHT22;62667;48.698;8.762;2023-01-01T14:57:13;24.40;22.70
10868;DHT22;62667;48.698;8.762;2023-01-01T14:59:46;24.10;23.40
10868;DHT22;62667;48.698;8.762;2023-01-01T15:02:18;23.50;24.10
10868;DHT22;62667;48.698;8.762;2023-01-01T15:07:20;22.60;26.50
10868;DHT22;62667;48.698;8.762;2023-01-01T15:19:59;19.70;33.00
10868;DHT22;62667;48.698;8.762;2023-01-01T15:22:29;19.30;33.90
10868;DHT22;62667;48.698;8.762;2023-01-01T15:24:59;18.80;39.90
10868;DHT22;62667;48.698;8.762;2023-01-01T19:51:32;12.50;57.10
10868;DHT22;62667;48.698;8.762;2023-01-01T19:53:59;12.40;57.20
10868;DHT22;62667;48.698;8.762;2023-01-01T19:56:26;12.40;56.40
10868;DHT22;62667;48.698;8.762;2023-01-01T19:58:53;12.50;56.10
10868;DHT22;62667;48.698;8.762;2023-01-01T20:01:20;12.50;55.40
10868;DHT22;62667;48.698;8.762;2023-01-01T20:03:49;12.60;54.80
